createdAt,value
2019-04-26T00:02:12.276Z,16.30
2019-04-26T00:04:16.655Z,16.30
2019-04-26T00:06:20.851Z,16.30
2019-04-26T00:08:24.688Z,16.20
2019-04-26T00:10:46.891Z,16.20
2019-04-26T00:12:58.746Z,16.30
2019-04-26T00:15:16.391Z,16.30
2019-04-26T00:17:22.411Z,16.20
2019-04-26T00:19:26.799Z,16.20
2019-04-26T00:21:31.937Z,16.30
2019-04-26T00:23:36.156Z,16.20
2019-04-26T00:25:40.299Z,16.20
2019-04-26T00:27:44.260Z,16.10
2019-04-26T00:29:48.376Z,16.10
2019-04-26T00:31:52.873Z,16.00
2019-04-26T00:33:56.896Z,16.00
2019-04-26T00:36:03.463Z,16.00
2019-04-26T00:38:07.517Z,16.00
2019-04-26T00:40:12.803Z,16.00
2019-04-26T00:42:18.518Z,16.00
2019-04-26T00:44:22.905Z,16.00
2019-04-26T00:46:29.240Z,16.00
2019-04-26T00:48:33.864Z,16.00
2019-04-26T00:50:37.971Z,15.90
2019-04-26T00:52:43.297Z,15.90
2019-04-26T00:54:47.827Z,15.80
2019-04-26T00:56:55.822Z,15.80
2019-04-26T00:59:00.143Z,15.80
2019-04-26T01:03:45.806Z,15.90
2019-04-26T01:05:59.587Z,15.80
2019-04-26T01:07:56.981Z,15.80
2019-04-26T01:10:00.816Z,15.80
2019-04-26T01:12:04.954Z,15.70
2019-04-26T01:14:09.123Z,15.70
2019-04-26T01:16:13.231Z,15.70
2019-04-26T01:18:18.130Z,15.60
2019-04-26T01:20:24.831Z,15.50
2019-04-26T01:22:31.647Z,15.60
2019-04-26T01:24:36.211Z,15.60
2019-04-26T01:26:40.846Z,15.60
2019-04-26T01:29:02.787Z,15.60
2019-04-26T01:31:08.530Z,15.60
2019-04-26T01:33:13.212Z,15.40
2019-04-26T01:35:17.888Z,15.30
2019-04-26T01:37:23.005Z,15.40
2019-04-26T01:39:27.890Z,15.20
2019-04-26T01:41:36.467Z,15.30
2019-04-26T01:43:59.235Z,15.30
2019-04-26T01:46:11.807Z,15.20
2019-04-26T01:48:36.244Z,15.20
2019-04-26T01:50:40.596Z,15.20
2019-04-26T01:52:45.756Z,15.20
2019-04-26T01:54:49.951Z,15.20
2019-04-26T01:56:56.853Z,15.10
2019-04-26T01:59:01.063Z,15.10
2019-04-26T02:01:23.660Z,15.00
2019-04-26T02:03:29.839Z,15.00
2019-04-26T02:05:33.727Z,14.90
2019-04-26T02:07:43.898Z,14.90
2019-04-26T02:09:47.791Z,14.90
2019-04-26T02:11:51.913Z,14.90
2019-04-26T02:13:56.228Z,14.90
2019-04-26T02:16:00.236Z,14.80
2019-04-26T02:18:05.164Z,14.80
2019-04-26T02:20:09.902Z,14.80
2019-04-26T02:22:15.536Z,14.70
2019-04-26T02:24:21.182Z,14.70
2019-04-26T02:26:36.147Z,14.70
2019-04-26T02:28:40.055Z,14.70
2019-04-26T02:30:44.062Z,14.60
2019-04-26T02:32:49.606Z,14.60
2019-04-26T02:34:54.179Z,14.60
2019-04-26T02:37:01.371Z,14.50
2019-04-26T02:39:08.385Z,14.50
2019-04-26T02:41:12.733Z,14.40
2019-04-26T02:43:19.267Z,14.50
2019-04-26T02:45:30.013Z,14.50
2019-04-26T02:47:40.902Z,14.60
2019-04-26T02:49:49.316Z,14.60
2019-04-26T02:51:56.211Z,14.50
2019-04-26T02:54:22.807Z,14.50
2019-04-26T02:56:30.290Z,14.50
2019-04-26T02:58:43.846Z,14.60
2019-04-26T03:00:48.496Z,14.50
2019-04-26T03:02:55.457Z,14.50
2019-04-26T03:05:02.304Z,14.50
2019-04-26T03:07:09.185Z,14.50
2019-04-26T03:09:16.071Z,14.50
2019-04-26T03:11:23.048Z,14.50
2019-04-26T03:13:32.739Z,14.50
2019-04-26T03:15:44.200Z,14.40
2019-04-26T03:17:52.630Z,14.40
2019-04-26T03:20:10.544Z,14.40
2019-04-26T03:22:19.949Z,14.40
2019-04-26T03:24:31.040Z,14.40
2019-04-26T03:26:39.514Z,14.40
2019-04-26T03:28:55.300Z,14.30
2019-04-26T03:31:02.194Z,14.30
2019-04-26T03:33:26.847Z,14.20
2019-04-26T03:36:07.461Z,14.30
2019-04-26T03:38:34.525Z,14.20
2019-04-26T03:40:58.172Z,14.30
2019-04-26T03:43:07.708Z,14.20
2019-04-26T03:45:17.344Z,14.10
2019-04-26T03:47:26.990Z,14.20
2019-04-26T03:49:49.732Z,14.20
2019-04-26T03:51:56.819Z,14.30
2019-04-26T03:54:09.444Z,14.20
2019-04-26T03:56:20.499Z,14.20
2019-04-26T03:58:57.374Z,14.10
2019-04-26T04:01:17.464Z,14.20
2019-04-26T04:03:43.501Z,14.20
2019-04-26T04:05:50.876Z,14.30
2019-04-26T04:07:56.968Z,14.30
2019-04-26T04:10:06.518Z,14.30
2019-04-26T04:12:25.442Z,14.30
2019-04-26T04:14:42.704Z,14.30
2019-04-26T04:16:57.123Z,14.30
2019-04-26T04:19:26.257Z,14.30
2019-04-26T04:21:52.663Z,14.30
2019-04-26T04:24:05.146Z,14.40
2019-04-26T04:26:10.825Z,14.40
2019-04-26T04:28:32.703Z,14.40
2019-04-26T04:30:51.657Z,14.40
2019-04-26T04:33:01.398Z,14.30
2019-04-26T04:35:13.294Z,14.30
2019-04-26T04:37:18.351Z,14.20
2019-04-26T04:39:25.176Z,14.10
2019-04-26T04:41:53.241Z,14.10
2019-04-26T04:44:28.833Z,14.20
2019-04-26T04:47:24.791Z,14.20
2019-04-26T04:49:29.596Z,14.20
2019-04-26T04:51:36.424Z,14.20
2019-04-26T04:54:01.136Z,14.20
2019-04-26T04:56:24.211Z,14.20
2019-04-26T04:58:34.555Z,14.20
2019-04-26T05:01:15.933Z,14.20
2019-04-26T05:03:39.037Z,14.30
2019-04-26T05:06:06.940Z,14.40
2019-04-26T05:08:22.674Z,14.40
2019-04-26T05:10:38.457Z,14.40
2019-04-26T05:12:57.247Z,14.50
2019-04-26T05:15:20.519Z,14.50
2019-04-26T05:17:36.239Z,14.50
2019-04-26T05:19:58.268Z,14.60
2019-04-26T05:22:05.043Z,14.60
2019-04-26T05:24:15.363Z,14.70
2019-04-26T05:26:41.070Z,14.80
2019-04-26T05:28:58.513Z,14.80
2019-04-26T05:31:32.336Z,14.90
2019-04-26T05:33:46.160Z,15.00
2019-04-26T05:36:07.476Z,15.00
2019-04-26T05:38:37.080Z,15.10
2019-04-26T05:41:08.530Z,15.10
2019-04-26T05:43:19.454Z,15.20
2019-04-26T05:45:42.519Z,15.30
2019-04-26T05:48:12.266Z,15.30
2019-04-26T05:51:02.187Z,15.30
2019-04-26T05:53:57.696Z,15.40
2019-04-26T05:56:34.731Z,15.50
2019-04-26T05:58:54.552Z,15.60
2019-04-26T06:01:23.906Z,15.70
2019-04-26T06:04:06.643Z,15.70
2019-04-26T06:06:27.243Z,15.80
2019-04-26T06:08:38.313Z,15.90
2019-04-26T06:10:57.872Z,16.00
2019-04-26T06:13:21.438Z,16.10
2019-04-26T06:15:38.558Z,16.20
2019-04-26T06:17:55.758Z,16.30
2019-04-26T06:20:23.598Z,16.30
2019-04-26T06:22:57.501Z,16.40
2019-04-26T06:25:09.453Z,16.50
2019-04-26T06:27:17.824Z,16.60
2019-04-26T06:29:44.195Z,16.70
2019-04-26T06:32:00.487Z,16.80
2019-04-26T06:34:10.555Z,16.90
2019-04-26T06:36:18.644Z,16.90
2019-04-26T06:39:06.282Z,17.00
2019-04-26T06:41:25.129Z,17.10
2019-04-26T06:43:33.555Z,17.20
2019-04-26T06:46:00.687Z,17.30
2019-04-26T06:48:20.613Z,17.40
2019-04-26T06:50:44.040Z,17.50
2019-04-26T06:52:53.555Z,17.60
2019-04-26T06:55:10.675Z,17.70
2019-04-26T06:58:01.124Z,17.80
2019-04-26T07:00:18.607Z,17.90
2019-04-26T07:02:40.558Z,18.00
2019-04-26T07:05:15.025Z,18.00
2019-04-26T07:07:32.684Z,18.10
2019-04-26T07:09:51.739Z,18.20
2019-04-26T07:12:29.231Z,18.40
2019-04-26T07:14:57.415Z,18.50
2019-04-26T07:17:09.947Z,18.50
2019-04-26T07:19:51.404Z,18.50
2019-04-26T07:22:35.192Z,18.50
2019-04-26T07:25:03.557Z,18.70
2019-04-26T07:27:19.389Z,18.80
2019-04-26T07:29:30.078Z,18.80
2019-04-26T07:31:52.188Z,18.90
2019-04-26T07:34:00.807Z,19.00
2019-04-26T07:36:29.770Z,19.20
2019-04-26T07:38:52.054Z,19.10
2019-04-26T07:41:21.561Z,19.20
2019-04-26T07:43:55.771Z,19.30
2019-04-26T07:46:08.485Z,19.40
2019-04-26T07:48:27.032Z,19.40
2019-04-26T07:50:52.900Z,19.50
2019-04-26T07:53:28.932Z,19.60
2019-04-26T07:56:07.180Z,19.80
2019-04-26T07:58:31.974Z,19.80
2019-04-26T08:00:45.081Z,20.00
2019-04-26T08:02:56.021Z,20.20
2019-04-26T08:05:18.675Z,20.30
2019-04-26T08:07:25.471Z,20.40
2019-04-26T08:09:31.159Z,20.50
2019-04-26T08:11:43.841Z,20.60
2019-04-26T08:14:12.486Z,20.60
2019-04-26T08:16:25.359Z,20.60
2019-04-26T08:18:42.352Z,20.60
2019-04-26T08:20:49.303Z,20.60
2019-04-26T08:23:02.717Z,20.70
2019-04-26T08:25:08.191Z,20.70
2019-04-26T08:27:22.868Z,20.70
2019-04-26T08:29:23.250Z,20.80
2019-04-26T08:31:31.327Z,20.90
2019-04-26T08:33:40.430Z,21.00
2019-04-26T08:35:49.037Z,21.00
2019-04-26T08:37:55.879Z,21.10
2019-04-26T08:40:00.190Z,21.30
2019-04-26T08:42:05.243Z,21.30
2019-04-26T08:44:14.425Z,21.40
2019-04-26T08:46:26.270Z,21.50
2019-04-26T08:48:49.307Z,21.50
2019-04-26T08:50:56.807Z,21.60
2019-04-26T08:53:05.115Z,21.60
2019-04-26T08:55:10.097Z,21.60
2019-04-26T08:57:15.311Z,21.80
2019-04-26T08:59:28.147Z,21.90
2019-04-26T09:01:51.133Z,21.90
2019-04-26T09:04:11.351Z,22.00
2019-04-26T09:06:21.572Z,22.00
2019-04-26T09:08:28.503Z,22.10
2019-04-26T09:10:35.521Z,22.20
2019-04-26T09:12:42.907Z,22.20
2019-04-26T09:14:52.791Z,22.30
2019-04-26T09:16:56.653Z,22.50
2019-04-26T09:19:00.475Z,22.60
2019-04-26T09:21:04.539Z,22.70
2019-04-26T09:23:10.378Z,22.70
2019-04-26T09:25:24.486Z,22.70
2019-04-26T09:27:30.181Z,22.90
2019-04-26T09:29:35.612Z,22.90
2019-04-26T09:31:50.423Z,23.10
2019-04-26T09:33:54.901Z,23.20
2019-04-26T09:35:59.704Z,23.20
2019-04-26T09:38:03.838Z,23.40
2019-04-26T09:40:10.357Z,23.40
2019-04-26T09:42:24.670Z,23.50
2019-04-26T09:44:41.338Z,23.60
2019-04-26T09:46:48.481Z,23.60
2019-04-26T09:49:06.950Z,23.70
2019-04-26T09:51:11.751Z,23.80
2019-04-26T09:53:16.437Z,23.80
2019-04-26T09:55:20.600Z,23.70
2019-04-26T09:57:24.702Z,23.70
2019-04-26T09:59:30.714Z,23.80
2019-04-26T10:01:34.295Z,24.00
2019-04-26T10:03:38.143Z,24.10
2019-04-26T10:05:42.059Z,24.10
2019-04-26T10:07:45.924Z,24.20
2019-04-26T10:09:51.640Z,24.20
2019-04-26T10:11:57.024Z,24.40
2019-04-26T10:14:02.581Z,24.60
2019-04-26T10:16:14.754Z,24.60
2019-04-26T10:18:24.218Z,24.90
2019-04-26T10:20:26.254Z,24.90
2019-04-26T10:22:32.717Z,25.00
2019-04-26T10:24:36.729Z,25.10
2019-04-26T10:26:40.566Z,25.30
2019-04-26T10:28:46.782Z,25.50
2019-04-26T10:30:51.674Z,25.50
2019-04-26T10:32:58.349Z,25.50
2019-04-26T10:35:01.168Z,25.60
2019-04-26T10:37:08.024Z,25.70
2019-04-26T10:39:12.996Z,25.80
2019-04-26T10:41:19.774Z,25.80
2019-04-26T10:43:29.265Z,25.70
2019-04-26T10:45:31.033Z,26.30
2019-04-26T10:47:38.490Z,26.60
2019-04-26T10:49:45.644Z,26.50
2019-04-26T10:51:49.749Z,26.50
2019-04-26T10:54:01.771Z,26.40
2019-04-26T10:56:24.295Z,26.30
2019-04-26T10:58:32.057Z,26.40
2019-04-26T11:00:36.310Z,26.40
2019-04-26T11:02:40.190Z,26.70
2019-04-26T11:04:44.604Z,26.90
2019-04-26T11:06:48.692Z,27.30
2019-04-26T11:08:52.739Z,27.50
2019-04-26T11:10:56.912Z,27.60
2019-04-26T11:13:00.826Z,27.80
2019-04-26T11:15:06.668Z,27.80
2019-04-26T11:17:16.057Z,27.80
2019-04-26T11:19:19.320Z,27.90
2019-04-26T11:21:23.190Z,28.00
2019-04-26T11:23:27.170Z,28.00
2019-04-26T11:25:31.316Z,28.00
2019-04-26T11:27:40.193Z,28.10
2019-04-26T11:29:53.236Z,28.10
2019-04-26T11:31:47.946Z,28.00
2019-04-26T11:33:51.953Z,27.70
2019-04-26T11:35:55.837Z,27.60
2019-04-26T11:37:59.818Z,27.60
2019-04-26T11:40:05.195Z,27.30
2019-04-26T11:42:11.813Z,27.20
2019-04-26T11:44:14.644Z,27.20
2019-04-26T11:46:21.826Z,27.20
2019-04-26T11:48:25.444Z,27.30
2019-04-26T11:50:29.700Z,27.50
2019-04-26T11:52:35.936Z,27.50
2019-04-26T11:54:39.203Z,27.50
2019-04-26T11:56:43.208Z,27.60
2019-04-26T11:58:47.214Z,27.90
2019-04-26T12:00:52.858Z,28.10
2019-04-26T12:02:58.225Z,28.30
2019-04-26T12:05:22.021Z,28.50
2019-04-26T12:07:29.699Z,28.70
2019-04-26T12:09:35.515Z,28.80
2019-04-26T12:11:48.918Z,28.80
2019-04-26T12:13:44.944Z,28.90
2019-04-26T12:15:48.791Z,28.90
2019-04-26T12:17:58.664Z,29.10
2019-04-26T12:19:59.681Z,29.20
2019-04-26T12:22:04.358Z,29.30
2019-04-26T12:24:11.118Z,29.30
2019-04-26T12:26:17.323Z,29.50
2019-04-26T12:28:21.559Z,29.70
2019-04-26T12:30:26.877Z,29.80
2019-04-26T12:32:30.988Z,29.60
2019-04-26T12:34:34.875Z,29.40
2019-04-26T12:36:38.735Z,29.30
2019-04-26T12:38:42.655Z,29.20
2019-04-26T12:40:47.586Z,29.00
2019-04-26T12:42:51.487Z,29.00
2019-04-26T12:45:12.239Z,28.80
2019-04-26T12:47:34.633Z,28.60
2019-04-26T12:49:36.919Z,28.60
2019-04-26T12:51:42.846Z,28.80
2019-04-26T12:53:46.333Z,29.10
2019-04-26T12:55:53.270Z,29.30
2019-04-26T12:57:57.288Z,29.60
2019-04-26T13:00:01.751Z,29.90
2019-04-26T13:02:06.291Z,30.10
2019-04-26T13:04:10.261Z,30.30
2019-04-26T13:06:14.160Z,30.30
2019-04-26T13:08:20.497Z,30.40
2019-04-26T13:10:35.456Z,30.40
2019-04-26T13:12:54.376Z,30.40
2019-04-26T13:15:02.747Z,30.50
2019-04-26T13:17:09.656Z,30.60
2019-04-26T13:19:16.019Z,30.70
2019-04-26T13:21:19.232Z,30.60
2019-04-26T13:23:25.440Z,30.50
2019-04-26T13:25:39.946Z,30.30
2019-04-26T13:27:34.179Z,30.30
2019-04-26T13:29:38.057Z,30.40
2019-04-26T13:31:41.947Z,30.20
2019-04-26T13:33:45.945Z,30.20
2019-04-26T13:36:02.206Z,30.40
2019-04-26T13:37:55.696Z,30.60
2019-04-26T13:40:00.112Z,30.90
2019-04-26T13:42:09.185Z,31.20
2019-04-26T13:44:10.780Z,31.10
2019-04-26T13:46:22.370Z,31.20
2019-04-26T13:48:27.990Z,31.20
2019-04-26T13:51:05.850Z,31.20
2019-04-26T13:53:09.967Z,31.20
2019-04-26T13:55:13.943Z,31.30
2019-04-26T13:57:20.937Z,31.60
2019-04-26T13:59:28.206Z,31.70
2019-04-26T14:01:30.600Z,31.60
2019-04-26T14:03:34.510Z,31.80
2019-04-26T14:05:39.871Z,32.10
2019-04-26T14:07:44.155Z,31.90
2019-04-26T14:09:48.081Z,32.00
2019-04-26T14:11:53.525Z,31.90
2019-04-26T14:14:00.012Z,32.10
2019-04-26T14:16:06.448Z,32.30
2019-04-26T14:18:10.505Z,32.10
2019-04-26T14:20:14.712Z,32.10
2019-04-26T14:22:20.267Z,32.30
2019-04-26T14:24:40.573Z,32.00
2019-04-26T14:26:47.535Z,31.70
2019-04-26T14:28:54.268Z,31.30
2019-04-26T14:30:57.185Z,30.90
2019-04-26T14:33:01.194Z,30.90
2019-04-26T14:35:06.227Z,30.90
2019-04-26T14:37:15.421Z,30.80
2019-04-26T14:39:19.644Z,30.90
2019-04-26T14:41:23.564Z,31.00
2019-04-26T14:43:40.111Z,30.90
2019-04-26T14:45:36.455Z,30.80
2019-04-26T14:47:47.134Z,30.80
2019-04-26T14:49:44.351Z,30.70
2019-04-26T14:51:51.270Z,30.70
2019-04-26T14:53:56.631Z,30.60
2019-04-26T14:56:01.035Z,30.70
2019-04-26T14:58:05.054Z,30.70
2019-04-26T15:00:10.164Z,30.60
2019-04-26T15:02:15.803Z,30.50
2019-04-26T15:04:33.564Z,30.20
2019-04-26T15:06:39.002Z,30.00
2019-04-26T15:08:48.656Z,29.90
2019-04-26T15:11:01.050Z,29.90
2019-04-26T15:13:15.028Z,29.70
2019-04-26T15:15:10.188Z,29.70
2019-04-26T15:17:16.363Z,29.80
2019-04-26T15:19:19.746Z,30.00
2019-04-26T15:21:27.256Z,30.00
2019-04-26T15:23:29.088Z,30.00
2019-04-26T15:25:33.616Z,29.80
2019-04-26T15:27:37.638Z,29.70
2019-04-26T15:29:42.313Z,29.50
2019-04-26T15:31:46.378Z,29.40
2019-04-26T15:33:52.386Z,29.20
2019-04-26T15:35:56.414Z,29.10
2019-04-26T15:38:01.483Z,29.00
2019-04-26T15:40:13.800Z,29.00
2019-04-26T15:42:29.507Z,28.90
2019-04-26T15:44:35.899Z,28.80
2019-04-26T15:46:56.589Z,28.80
2019-04-26T15:49:05.411Z,28.70
2019-04-26T15:51:09.725Z,28.50
2019-04-26T15:53:14.781Z,28.20
2019-04-26T15:55:18.969Z,28.10
2019-04-26T15:57:24.399Z,28.10
2019-04-26T15:59:28.415Z,28.00
2019-04-26T16:01:32.606Z,27.90
2019-04-26T16:03:36.839Z,27.90
2019-04-26T16:05:43.343Z,27.70
2019-04-26T16:07:47.339Z,27.50
2019-04-26T16:09:55.969Z,27.50
2019-04-26T16:11:56.764Z,27.40
2019-04-26T16:14:02.104Z,27.40
2019-04-26T16:16:06.319Z,27.20
2019-04-26T16:18:10.564Z,27.10
2019-04-26T16:20:15.950Z,27.00
2019-04-26T16:22:19.967Z,27.00
2019-04-26T16:24:24.148Z,27.00
2019-04-26T16:26:29.322Z,27.00
2019-04-26T16:28:38.461Z,26.60
2019-04-26T16:30:42.868Z,26.50
2019-04-26T16:32:52.660Z,26.50
2019-04-26T16:34:57.845Z,26.40
2019-04-26T16:37:03.112Z,26.40
2019-04-26T16:39:10.430Z,26.40
2019-04-26T16:41:14.476Z,26.30
2019-04-26T16:43:34.849Z,26.30
2019-04-26T16:45:23.878Z,26.20
2019-04-26T16:47:28.240Z,26.10
2019-04-26T16:49:35.111Z,26.00
2019-04-26T16:51:37.589Z,25.90
2019-04-26T16:53:56.980Z,25.90
2019-04-26T16:55:52.171Z,25.80
2019-04-26T16:57:57.325Z,25.90
2019-04-26T17:00:00.221Z,25.80
2019-04-26T17:02:04.076Z,25.70
2019-04-26T17:04:11.163Z,25.70
2019-04-26T17:06:14.307Z,25.50
2019-04-26T17:08:19.272Z,25.50
2019-04-26T17:10:24.813Z,25.40
2019-04-26T17:12:29.071Z,25.40
2019-04-26T17:14:34.166Z,25.30
2019-04-26T17:16:38.382Z,25.20
2019-04-26T17:18:42.731Z,25.10
2019-04-26T17:20:48.167Z,25.00
2019-04-26T17:23:00.599Z,24.90
2019-04-26T17:25:09.872Z,24.90
2019-04-26T17:27:15.370Z,24.90
2019-04-26T17:29:19.239Z,24.70
2019-04-26T17:31:23.323Z,24.60
2019-04-26T17:33:28.231Z,24.70
2019-04-26T17:35:36.564Z,24.50
2019-04-26T17:37:42.208Z,24.40
2019-04-26T17:39:47.561Z,24.40
2019-04-26T17:41:54.124Z,24.30
2019-04-26T17:44:08.070Z,24.30
2019-04-26T17:46:02.950Z,24.30
2019-04-26T17:48:12.798Z,24.10
2019-04-26T17:50:12.912Z,24.00
2019-04-26T17:52:16.917Z,23.80
2019-04-26T17:54:40.774Z,23.80
2019-04-26T17:56:31.550Z,23.80
2019-04-26T17:58:34.329Z,23.70
2019-04-26T18:00:45.910Z,23.70
2019-04-26T18:02:48.009Z,23.60
2019-04-26T18:04:58.866Z,23.60
2019-04-26T18:07:03.025Z,23.60
2019-04-26T18:09:00.250Z,23.50
2019-04-26T18:11:04.365Z,23.40
2019-04-26T18:13:11.218Z,23.30
2019-04-26T18:15:18.833Z,23.40
2019-04-26T18:17:23.150Z,23.30
2019-04-26T18:19:33.388Z,23.30
2019-04-26T18:21:39.140Z,23.20
2019-04-26T18:23:44.665Z,23.10
2019-04-26T18:25:48.670Z,23.10
2019-04-26T18:27:53.537Z,23.10
2019-04-26T18:29:59.860Z,23.20
2019-04-26T18:32:03.729Z,23.20
2019-04-26T18:34:08.427Z,23.00
2019-04-26T18:36:13.090Z,23.00
2019-04-26T18:38:24.754Z,22.90
2019-04-26T18:40:28.619Z,22.80
2019-04-26T18:42:33.413Z,22.70
2019-04-26T18:44:43.333Z,22.70
2019-04-26T18:46:47.135Z,22.50
2019-04-26T18:48:50.716Z,22.50
2019-04-26T18:50:55.363Z,22.40
2019-04-26T18:53:13.944Z,22.40
2019-04-26T18:55:29.006Z,22.40
2019-04-26T18:57:30.375Z,22.30
2019-04-26T18:59:34.313Z,22.20
2019-04-26T19:01:40.802Z,22.30
2019-04-26T19:03:43.816Z,22.10
2019-04-26T19:05:47.874Z,22.10
2019-04-26T19:07:51.736Z,22.00
2019-04-26T19:09:59.262Z,22.00
2019-04-26T19:12:02.759Z,22.00
2019-04-26T19:14:13.066Z,22.00
2019-04-26T19:16:32.035Z,22.00
2019-04-26T19:18:37.943Z,21.90
2019-04-26T19:21:02.858Z,21.80
2019-04-26T19:23:08.195Z,21.80
2019-04-26T19:25:20.890Z,21.80
2019-04-26T19:27:22.324Z,21.70
2019-04-26T19:29:32.727Z,21.70
2019-04-26T19:31:28.947Z,21.70
2019-04-26T19:33:32.845Z,21.60
2019-04-26T19:35:39.330Z,21.50
2019-04-26T19:37:43.380Z,21.50
2019-04-26T19:39:47.462Z,21.50
2019-04-26T19:41:57.329Z,21.40
2019-04-26T19:43:57.218Z,21.40
2019-04-26T19:46:02.648Z,21.30
2019-04-26T19:48:20.400Z,21.20
2019-04-26T19:50:30.440Z,21.10
2019-04-26T19:52:39.470Z,21.10
2019-04-26T19:54:50.629Z,21.10
2019-04-26T19:57:08.330Z,21.00
2019-04-26T19:59:12.378Z,21.00
2019-04-26T20:01:16.465Z,21.00
2019-04-26T20:03:28.148Z,20.90
2019-04-26T20:05:32.116Z,20.80
2019-04-26T20:07:36.298Z,20.80
2019-04-26T20:09:41.893Z,20.80
2019-04-26T20:11:47.058Z,20.70
2019-04-26T20:13:55.156Z,20.60
2019-04-26T20:15:57.436Z,20.50
2019-04-26T20:18:03.909Z,20.40
2019-04-26T20:20:18.872Z,20.50
2019-04-26T20:22:13.664Z,20.50
2019-04-26T20:24:19.330Z,20.40
2019-04-26T20:26:23.317Z,20.30
2019-04-26T20:28:29.680Z,20.30
2019-04-26T20:30:40.084Z,20.30
2019-04-26T20:32:45.174Z,20.30
2019-04-26T20:34:50.639Z,20.20
2019-04-26T20:36:54.548Z,20.20
2019-04-26T20:38:58.471Z,20.20
2019-04-26T20:41:02.300Z,20.10
2019-04-26T20:43:07.034Z,20.00
2019-04-26T20:45:16.572Z,20.00
2019-04-26T20:47:17.935Z,20.10
2019-04-26T20:49:21.927Z,20.00
2019-04-26T20:51:26.059Z,20.00
2019-04-26T20:53:30.820Z,20.00
2019-04-26T20:55:35.602Z,19.90
2019-04-26T20:57:42.064Z,19.90
2019-04-26T20:59:45.261Z,19.90
2019-04-26T21:02:02.600Z,19.90
2019-04-26T21:03:54.771Z,19.80
2019-04-26T21:06:02.947Z,19.80
2019-04-26T21:08:07.608Z,19.70
2019-04-26T21:10:14.966Z,19.70
2019-04-26T21:12:21.939Z,19.70
2019-04-26T21:14:26.021Z,19.60
2019-04-26T21:16:29.899Z,19.70
2019-04-26T21:18:39.987Z,19.60
2019-04-26T21:20:39.836Z,19.50
2019-04-26T21:22:43.705Z,19.40
2019-04-26T21:24:50.745Z,19.30
2019-04-26T21:26:58.763Z,19.40
2019-04-26T21:29:20.431Z,19.50
2019-04-26T21:31:32.886Z,19.50
2019-04-26T21:33:39.035Z,19.50
2019-04-26T21:35:57.646Z,19.40
2019-04-26T21:38:04.262Z,19.40
2019-04-26T21:40:22.432Z,19.40
2019-04-26T21:42:25.525Z,19.40
2019-04-26T21:44:28.199Z,19.20
2019-04-26T21:46:33.503Z,19.20
2019-04-26T21:48:41.954Z,19.20
2019-04-26T21:50:44.581Z,19.00
2019-04-26T21:52:49.052Z,19.00
2019-04-26T21:54:56.303Z,18.90
2019-04-26T21:56:58.867Z,18.90
2019-04-26T21:59:03.761Z,18.80
2019-04-26T22:01:15.685Z,18.80
2019-04-26T22:03:19.080Z,18.70
2019-04-26T22:05:23.454Z,18.60
2019-04-26T22:07:27.686Z,18.50
2019-04-26T22:09:52.917Z,18.40
2019-04-26T22:11:57.338Z,18.40
2019-04-26T22:14:13.183Z,18.30
2019-04-26T22:16:31.935Z,18.40
2019-04-26T22:18:42.791Z,18.30
2019-04-26T22:21:00.712Z,18.10
2019-04-26T22:23:21.537Z,18.10
2019-04-26T22:25:27.147Z,18.00
2019-04-26T22:27:31.174Z,17.80
2019-04-26T22:29:35.419Z,17.80
2019-04-26T22:31:41.408Z,17.70
2019-04-26T22:33:45.505Z,17.60
2019-04-26T22:35:50.501Z,17.50
2019-04-26T22:37:55.219Z,17.40
2019-04-26T22:39:59.472Z,17.20
2019-04-26T22:42:03.962Z,17.20
2019-04-26T22:44:31.241Z,17.00
2019-04-26T22:46:47.283Z,16.90
2019-04-26T22:49:01.419Z,16.90
2019-04-26T22:51:04.394Z,16.80
2019-04-26T22:53:08.680Z,16.80
2019-04-26T22:55:17.645Z,16.60
2019-04-26T22:57:18.850Z,16.50
2019-04-26T22:59:25.211Z,16.50
2019-04-26T23:01:29.214Z,16.40
2019-04-26T23:03:36.613Z,16.40
2019-04-26T23:05:39.362Z,16.30
2019-04-26T23:07:43.258Z,16.20
2019-04-26T23:09:51.846Z,16.10
2019-04-26T23:11:54.524Z,16.10
2019-04-26T23:14:18.936Z,16.10
2019-04-26T23:16:40.413Z,16.00
2019-04-26T23:19:01.388Z,15.90
2019-04-26T23:21:11.986Z,15.80
2019-04-26T23:23:15.030Z,15.70
2019-04-26T23:25:18.909Z,15.60
2019-04-26T23:27:23.712Z,15.40
2019-04-26T23:29:27.755Z,15.40
2019-04-26T23:31:33.352Z,15.30
2019-04-26T23:33:37.340Z,15.40
2019-04-26T23:35:43.739Z,15.30
2019-04-26T23:37:46.826Z,15.10
2019-04-26T23:39:51.111Z,15.00
2019-04-26T23:41:55.096Z,14.90
2019-04-26T23:44:02.704Z,14.80
2019-04-26T23:46:04.730Z,14.70
2019-04-26T23:48:12.078Z,14.70
2019-04-26T23:50:14.185Z,14.60
2019-04-26T23:52:18.623Z,14.60
2019-04-26T23:54:23.869Z,14.50
2019-04-26T23:56:27.953Z,14.50
2019-04-26T23:58:31.823Z,14.40
